createdAt,value
2022-09-05T00:02:03.656Z,102040.19
2022-09-05T00:04:56.018Z,102037.47
2022-09-05T00:08:05.290Z,102031.50
2022-09-05T00:11:14.406Z,102035.28
2022-09-05T00:13:46.512Z,102031.75
2022-09-05T00:16:48.595Z,102033.38
2022-09-05T00:24:17.163Z,102027.16
2022-09-05T00:24:36.741Z,102029.88
2022-09-05T00:25:50.044Z,102025.28
2022-09-05T00:28:46.835Z,102028.81
2022-09-05T00:31:53.956Z,102037.72
2022-09-05T00:34:57.743Z,102041.50
2022-09-05T00:37:46.894Z,102038.56
2022-09-05T00:40:26.550Z,102036.91
2022-09-05T00:43:14.750Z,102042.91
2022-09-05T00:45:58.737Z,102047.22
2022-09-05T00:48:38.983Z,102043.38
2022-09-05T00:51:34.870Z,102034.47
2022-09-05T00:54:01.946Z,102046.09
2022-09-05T00:57:03.979Z,102047.97
2022-09-05T01:00:18.002Z,102045.75
2022-09-05T01:03:09.964Z,102064.94
2022-09-05T01:06:32.124Z,102064.84
2022-09-05T01:09:38.739Z,102063.94
2022-09-05T01:12:35.237Z,102063.13
2022-09-05T01:15:41.470Z,102061.41
2022-09-05T01:18:29.320Z,102061.16
2022-09-05T01:21:12.095Z,102062.22
2022-09-05T01:24:11.972Z,102065.16
2022-09-05T01:27:42.270Z,102058.63
2022-09-05T01:30:45.442Z,102064.19
2022-09-05T01:33:31.488Z,102059.84
2022-09-05T01:36:13.494Z,102068.16
2022-09-05T01:40:10.526Z,102068.63
2022-09-05T01:42:05.342Z,102065.03
2022-09-05T01:45:06.167Z,102065.28
2022-09-05T01:47:54.041Z,102071.75
2022-09-05T01:50:48.000Z,102053.78
2022-09-05T01:53:31.651Z,102060.25
2022-09-05T01:56:24.453Z,102070.00
2022-09-05T01:59:34.111Z,102067.78
2022-09-05T02:02:50.081Z,102068.50
2022-09-05T02:05:59.356Z,102070.88
2022-09-05T02:08:58.853Z,102073.00
2022-09-05T02:11:49.773Z,102077.25
2022-09-05T02:14:54.307Z,102071.50
2022-09-05T02:17:50.098Z,102070.69
2022-09-05T02:20:46.356Z,102068.63
2022-09-05T02:23:41.649Z,102069.91
2022-09-05T02:26:23.454Z,102066.38
2022-09-05T02:29:29.057Z,102078.59
2022-09-05T02:32:40.508Z,102076.94
2022-09-05T02:35:10.211Z,102078.47
2022-09-05T02:39:22.685Z,102068.28
2022-09-05T02:45:09.109Z,102072.25
2022-09-05T02:45:14.649Z,102068.47
2022-09-05T02:47:22.784Z,102074.03
2022-09-05T02:56:48.766Z,102084.59
2022-09-05T02:57:34.200Z,102078.03
2022-09-05T02:57:37.968Z,102072.03
2022-09-05T03:00:11.387Z,102082.00
2022-09-05T03:03:20.408Z,102077.91
2022-09-05T03:06:08.945Z,102078.16
2022-09-05T03:09:09.895Z,102074.63
2022-09-05T03:12:29.096Z,102082.97
2022-09-05T03:15:22.913Z,102077.81
2022-09-05T03:18:31.450Z,102081.56
2022-09-05T03:21:29.481Z,102073.72
2022-09-05T03:24:30.200Z,102071.00
2022-09-05T03:27:31.965Z,102068.78
2022-09-05T03:30:25.152Z,102069.25
2022-09-05T03:33:31.699Z,102074.66
2022-09-05T03:36:22.337Z,102073.03
2022-09-05T03:38:49.916Z,102081.34
2022-09-05T03:41:49.197Z,102078.41
2022-09-05T03:44:50.163Z,102075.97
2022-09-05T03:47:46.736Z,102080.75
2022-09-05T03:55:05.922Z,102071.47
2022-09-05T03:57:13.709Z,102072.53
2022-09-05T03:57:33.703Z,102069.03
2022-09-05T04:00:08.301Z,102081.09
2022-09-05T04:08:07.370Z,102066.59
2022-09-05T04:08:31.880Z,102072.78
2022-09-05T04:09:50.997Z,102079.00
2022-09-05T04:12:22.781Z,102080.06
2022-09-05T04:15:00.841Z,102071.97
2022-09-05T04:17:45.245Z,102079.00
2022-09-05T04:20:40.420Z,102077.84
2022-09-05T04:24:09.475Z,102076.19
2022-09-05T04:26:55.737Z,102088.28
2022-09-05T04:30:05.081Z,102084.19
2022-09-05T04:33:17.001Z,102093.81
2022-09-05T04:36:19.153Z,102101.31
2022-09-05T04:39:06.744Z,102095.91
2022-09-05T04:41:40.163Z,102094.03
2022-09-05T04:44:15.587Z,102099.19
2022-09-05T04:46:52.114Z,102095.91
2022-09-05T04:49:33.627Z,102101.44
2022-09-05T04:52:54.550Z,102105.78
2022-09-05T04:55:26.099Z,102103.66
2022-09-05T04:59:37.609Z,102096.97
2022-09-05T05:06:16.121Z,102099.19
2022-09-05T05:06:17.343Z,102117.59
2022-09-05T05:07:26.487Z,102095.31
2022-09-05T05:11:10.213Z,102101.63
2022-09-05T05:18:01.974Z,102103.38
2022-09-05T05:18:11.660Z,102102.47
2022-09-05T05:19:21.348Z,102106.09
2022-09-05T05:21:57.808Z,102105.38
2022-09-05T05:24:34.467Z,102108.78
2022-09-05T05:27:16.903Z,102120.03
2022-09-05T05:30:08.091Z,102121.09
2022-09-05T05:32:45.749Z,102120.94
2022-09-05T05:35:29.511Z,102117.03
2022-09-05T05:38:16.531Z,102126.16
2022-09-05T05:40:57.196Z,102123.31
2022-09-05T05:43:42.834Z,102122.69
2022-09-05T05:46:49.814Z,102125.72
2022-09-05T05:49:49.399Z,102127.81
2022-09-05T05:52:49.334Z,102122.84
2022-09-05T05:55:51.798Z,102122.34
2022-09-05T05:58:57.718Z,102121.38
2022-09-05T06:01:37.640Z,102120.06
2022-09-05T06:04:08.427Z,102125.56
2022-09-05T06:06:56.948Z,102128.16
2022-09-05T06:14:51.931Z,102129.88
2022-09-05T06:14:59.170Z,102129.72
2022-09-05T06:17:10.081Z,102125.19
2022-09-05T06:22:04.096Z,102133.41
2022-09-05T06:23:47.589Z,102130.28
2022-09-05T06:26:36.158Z,102120.38
2022-09-05T06:29:38.130Z,102120.53
2022-09-05T06:32:58.626Z,102135.63
2022-09-05T06:35:40.669Z,102139.28
2022-09-05T06:38:46.807Z,102125.16
2022-09-05T06:41:42.499Z,102126.19
2022-09-05T06:44:37.318Z,102126.97
2022-09-05T06:47:22.667Z,102123.97
2022-09-05T06:50:27.732Z,102116.63
2022-09-05T06:53:27.009Z,102129.81
2022-09-05T06:56:26.079Z,102128.94
2022-09-05T06:59:23.846Z,102130.75
2022-09-05T07:02:42.713Z,102137.47
2022-09-05T07:05:39.736Z,102140.31
2022-09-05T07:08:48.092Z,102141.56
2022-09-05T07:11:19.281Z,102141.66
2022-09-05T07:14:08.189Z,102144.53
2022-09-05T07:17:24.931Z,102139.16
2022-09-05T07:20:22.132Z,102141.75
2022-09-05T07:22:58.698Z,102145.88
2022-09-05T07:25:50.462Z,102147.28
2022-09-05T07:28:28.637Z,102147.63
2022-09-05T07:31:14.303Z,102142.75
2022-09-05T07:34:22.877Z,102143.59
2022-09-05T07:36:57.833Z,102138.97
2022-09-05T07:40:06.682Z,102153.13
2022-09-05T07:43:22.730Z,102139.50
2022-09-05T07:46:11.309Z,102129.06
2022-09-05T07:48:47.740Z,102131.13
2022-09-05T07:56:49.492Z,102138.16
2022-09-05T07:56:55.224Z,102134.22
2022-09-05T07:57:31.208Z,102131.88
2022-09-05T08:00:27.163Z,102135.34
2022-09-05T08:03:12.293Z,102129.97
2022-09-05T08:05:50.345Z,102120.19
2022-09-05T08:08:23.519Z,102136.41
2022-09-05T08:11:25.058Z,102123.91
2022-09-05T08:14:45.073Z,102141.03
2022-09-05T08:17:21.078Z,102135.41
2022-09-05T08:20:26.787Z,102127.38
2022-09-05T08:23:38.393Z,102135.63
2022-09-05T08:26:15.028Z,102129.34
2022-09-05T08:29:00.091Z,102119.81
2022-09-05T08:31:42.266Z,102115.25
2022-09-05T08:34:18.472Z,102108.19
2022-09-05T08:36:56.265Z,102106.47
2022-09-05T08:39:29.360Z,102101.22
2022-09-05T08:42:09.429Z,102086.22
2022-09-05T08:46:43.161Z,102086.84
2022-09-05T08:47:55.533Z,102095.97
2022-09-05T08:50:33.650Z,102083.63
2022-09-05T08:53:32.536Z,102079.63
2022-09-05T08:56:24.419Z,102073.63
2022-09-05T08:59:31.536Z,102066.88
2022-09-05T09:02:37.993Z,102050.75
2022-09-05T09:05:20.239Z,102058.81
2022-09-05T09:08:03.903Z,102047.19
2022-09-05T09:10:58.089Z,102042.72
2022-09-05T09:14:08.861Z,102046.34
2022-09-05T09:17:12.271Z,102039.00
2022-09-05T09:19:49.577Z,102038.63
2022-09-05T09:22:41.016Z,102029.06
2022-09-05T09:25:18.435Z,102043.34
2022-09-05T09:28:48.960Z,102040.78
2022-09-05T09:31:02.803Z,102039.63
2022-09-05T09:33:43.516Z,102041.31
2022-09-05T09:36:30.480Z,102040.75
2022-09-05T09:39:38.916Z,102031.34
2022-09-05T09:42:32.466Z,102025.91
2022-09-05T09:45:27.837Z,102030.13
2022-09-05T09:48:47.353Z,102023.50
2022-09-05T09:51:48.047Z,102023.53
2022-09-05T09:54:54.946Z,102020.97
2022-09-05T09:58:03.976Z,102018.81
2022-09-05T10:00:55.433Z,102015.22
2022-09-05T10:09:38.400Z,102003.19
2022-09-05T10:10:33.267Z,101999.91
2022-09-05T10:10:43.932Z,101999.59
2022-09-05T10:13:08.713Z,101996.34
2022-09-05T10:15:39.577Z,101984.59
2022-09-05T10:18:24.534Z,101980.41
2022-09-05T10:21:33.618Z,101985.88
2022-09-05T10:24:49.111Z,101980.41
2022-09-05T10:27:25.303Z,101975.59
2022-09-05T10:30:19.862Z,101969.97
2022-09-05T10:35:09.288Z,101975.91
2022-09-05T10:36:39.746Z,101970.88
2022-09-05T10:39:21.199Z,101958.28
2022-09-05T10:42:27.006Z,101975.44
2022-09-05T10:45:00.196Z,101965.31
2022-09-05T10:47:55.657Z,101945.88
2022-09-05T10:50:44.255Z,101948.25
2022-09-05T10:53:39.247Z,101942.50
2022-09-05T10:56:48.584Z,101942.25
2022-09-05T11:02:20.818Z,101944.09
2022-09-05T11:02:58.254Z,101934.91
2022-09-05T11:05:38.186Z,101924.03
2022-09-05T11:08:27.592Z,101935.97
2022-09-05T11:11:28.795Z,101925.72
2022-09-05T11:14:11.178Z,101925.09
2022-09-05T11:17:01.669Z,101920.81
2022-09-05T11:19:45.599Z,101920.31
2022-09-05T11:22:23.916Z,101922.38
2022-09-05T11:24:59.943Z,101905.69
2022-09-05T11:27:50.973Z,101912.63
2022-09-05T11:30:30.269Z,101911.19
2022-09-05T11:39:48.085Z,101907.78
2022-09-05T11:40:05.510Z,101906.06
2022-09-05T11:40:06.174Z,101918.06
2022-09-05T11:42:55.446Z,101918.84
2022-09-05T11:45:45.858Z,101912.59
2022-09-05T11:49:06.892Z,101923.97
2022-09-05T11:52:31.067Z,101916.00
2022-09-05T11:55:21.140Z,101906.69
2022-09-05T11:58:44.493Z,101904.53
2022-09-05T12:01:44.830Z,101914.88
2022-09-05T12:05:49.440Z,101906.00
2022-09-05T12:07:57.454Z,101889.06
2022-09-05T12:10:46.306Z,101900.38
2022-09-05T12:13:51.597Z,101905.88
2022-09-05T12:16:26.838Z,101900.00
2022-09-05T12:19:20.195Z,101883.81
2022-09-05T12:22:34.936Z,101892.19
2022-09-05T12:27:38.282Z,101889.06
2022-09-05T12:29:27.795Z,101873.09
2022-09-05T12:33:17.516Z,101875.97
2022-09-05T12:36:12.902Z,101878.03
2022-09-05T12:40:43.289Z,101873.97
2022-09-05T12:42:09.640Z,101873.44
2022-09-05T12:44:42.741Z,101873.88
2022-09-05T12:47:16.840Z,101869.75
2022-09-05T12:50:02.775Z,101866.69
2022-09-05T12:52:33.758Z,101866.09
2022-09-05T12:55:26.240Z,101859.66
2022-09-05T13:02:27.763Z,101859.16
2022-09-05T13:03:00.953Z,101867.59
2022-09-05T13:04:29.679Z,101874.69
2022-09-05T13:07:12.312Z,101863.59
2022-09-05T13:11:10.057Z,101859.78
2022-09-05T13:14:49.646Z,101872.66
2022-09-05T13:15:50.994Z,101872.56
2022-09-05T13:18:28.534Z,101865.78
2022-09-05T13:21:23.096Z,101869.72
2022-09-05T13:24:12.397Z,101857.72
2022-09-05T13:26:50.105Z,101863.38
2022-09-05T13:29:23.288Z,101851.81
2022-09-05T13:37:55.710Z,101867.47
2022-09-05T13:38:17.823Z,101854.25
2022-09-05T13:38:30.664Z,101839.00
2022-09-05T13:40:51.523Z,101844.56
2022-09-05T13:43:27.630Z,101852.19
2022-09-05T13:46:18.880Z,101853.84
2022-09-05T13:49:29.770Z,101851.88
2022-09-05T13:52:34.492Z,101852.97
2022-09-05T13:55:33.426Z,101858.72
2022-09-05T13:58:45.314Z,101853.69
2022-09-05T14:02:26.645Z,101847.72
2022-09-05T14:05:27.278Z,101852.22
2022-09-05T14:08:17.021Z,101843.97
2022-09-05T14:11:22.750Z,101850.94
2022-09-05T14:15:08.351Z,101835.00
2022-09-05T14:20:27.515Z,101831.00
2022-09-05T14:23:07.405Z,101827.31
2022-09-05T14:25:44.224Z,101819.19
2022-09-05T14:28:27.207Z,101817.03
2022-09-05T14:37:55.080Z,101830.09
2022-09-05T14:37:55.341Z,101815.72
2022-09-05T14:38:01.213Z,101811.47
2022-09-05T14:41:11.882Z,101814.66
2022-09-05T14:43:47.527Z,101816.38
2022-09-05T14:46:52.353Z,101820.13
2022-09-05T14:49:55.931Z,101819.31
2022-09-05T14:52:29.994Z,101812.25
2022-09-05T15:02:40.962Z,101829.38
2022-09-05T15:02:53.353Z,101815.53
2022-09-05T15:06:37.395Z,101822.31
2022-09-05T15:12:16.059Z,101817.53
2022-09-05T15:12:32.977Z,101828.44
2022-09-05T15:15:07.382Z,101816.19
2022-09-05T15:17:35.202Z,101821.88
2022-09-05T15:20:07.671Z,101817.75
2022-09-05T15:22:39.838Z,101811.28
2022-09-05T15:25:17.508Z,101818.81
2022-09-05T15:27:47.836Z,101821.16
2022-09-05T15:30:21.081Z,101814.66
2022-09-05T15:32:50.827Z,101818.97
2022-09-05T15:35:36.831Z,101811.00
2022-09-05T15:38:54.453Z,101820.00
2022-09-05T15:41:26.840Z,101812.72
2022-09-05T15:44:09.659Z,101802.03
2022-09-05T15:46:51.413Z,101803.81
2022-09-05T15:49:39.290Z,101800.53
2022-09-05T15:52:18.700Z,101794.66
2022-09-05T15:55:25.979Z,101791.81
2022-09-05T15:57:56.454Z,101808.88
2022-09-05T16:00:51.667Z,101801.47
2022-09-05T16:10:39.234Z,101808.53
2022-09-05T16:10:48.476Z,101812.22
2022-09-05T16:12:17.001Z,101817.97
2022-09-05T16:16:20.167Z,101811.25
2022-09-05T16:23:17.309Z,101815.44
2022-09-05T16:23:24.106Z,101816.28
2022-09-05T16:23:46.398Z,101816.81
2022-09-05T16:26:25.830Z,101818.28
2022-09-05T16:29:10.654Z,101819.34
2022-09-05T16:32:07.774Z,101822.72
2022-09-05T16:34:57.271Z,101819.09
2022-09-05T16:37:40.593Z,101817.56
2022-09-05T16:40:41.360Z,101818.25
2022-09-05T16:43:29.547Z,101818.41
2022-09-05T16:46:37.866Z,101818.97
2022-09-05T16:49:41.535Z,101807.53
2022-09-05T16:52:17.023Z,101817.28
2022-09-05T16:55:29.466Z,101818.69
2022-09-05T16:58:26.936Z,101814.38
2022-09-05T17:01:25.062Z,101819.28
2022-09-05T17:04:21.019Z,101836.91
2022-09-05T17:07:16.965Z,101835.25
2022-09-05T17:09:45.430Z,101827.38
2022-09-05T17:12:27.154Z,101834.13
2022-09-05T17:15:02.102Z,101827.66
2022-09-05T17:18:20.466Z,101829.63
2022-09-05T17:20:37.736Z,101824.94
2022-09-05T17:29:18.430Z,101822.38
2022-09-05T17:29:31.061Z,101826.22
2022-09-05T17:29:41.271Z,101828.09
2022-09-05T17:31:56.292Z,101823.34
2022-09-05T17:34:46.931Z,101826.84
2022-09-05T17:37:24.263Z,101829.69
2022-09-05T17:40:18.013Z,101836.31
2022-09-05T17:43:01.273Z,101836.91
2022-09-05T17:45:51.595Z,101835.88
2022-09-05T17:49:02.576Z,101841.06
2022-09-05T17:51:34.548Z,101856.44
2022-09-05T17:54:05.218Z,101845.91
2022-09-05T17:56:40.556Z,101848.00
2022-09-05T17:59:28.328Z,101859.47
2022-09-05T18:02:18.886Z,101858.56
2022-09-05T18:04:52.085Z,101862.53
2022-09-05T18:07:31.051Z,101876.91
2022-09-05T18:10:15.728Z,101876.00
2022-09-05T18:13:12.452Z,101872.91
2022-09-05T18:15:43.802Z,101879.56
2022-09-05T18:21:25.814Z,101877.09
2022-09-05T18:24:05.108Z,101872.34
2022-09-05T18:26:43.764Z,101867.22
2022-09-05T18:29:57.129Z,101888.03
2022-09-05T18:32:12.406Z,101879.09
2022-09-05T18:34:41.701Z,101879.44
2022-09-05T18:37:37.744Z,101887.41
2022-09-05T18:40:16.551Z,101877.69
2022-09-05T18:43:10.557Z,101884.84
2022-09-05T18:45:52.544Z,101892.00
2022-09-05T18:48:29.979Z,101890.44
2022-09-05T18:51:13.031Z,101883.38
2022-09-05T18:53:47.506Z,101882.88
2022-09-05T18:57:09.779Z,101894.88
2022-09-05T18:59:37.368Z,101888.94
2022-09-05T19:02:26.590Z,101887.88
2022-09-05T19:05:15.798Z,101892.28
2022-09-05T19:07:50.651Z,101888.50
2022-09-05T19:10:35.577Z,101896.97
2022-09-05T19:13:19.506Z,101892.91
2022-09-05T19:16:33.227Z,101895.09
2022-09-05T19:19:16.048Z,101888.03
2022-09-05T19:22:33.332Z,101881.25
2022-09-05T19:24:46.298Z,101882.06
2022-09-05T19:32:24.671Z,101883.69
2022-09-05T19:36:45.116Z,101888.06
2022-09-05T19:36:52.705Z,101877.72
2022-09-05T19:37:10.871Z,101876.09
2022-09-05T19:39:57.721Z,101890.25
2022-09-05T19:47:25.845Z,101886.72
2022-09-05T19:47:50.279Z,101878.03
2022-09-05T19:50:26.788Z,101885.91
2022-09-05T19:53:07.534Z,101886.47
2022-09-05T19:55:37.738Z,101894.59
2022-09-05T19:58:29.276Z,101886.97
2022-09-05T20:01:12.649Z,101882.06
2022-09-05T20:03:53.251Z,101895.38
2022-09-05T20:06:30.533Z,101886.97
2022-09-05T20:09:22.598Z,101892.94
2022-09-05T20:11:59.744Z,101905.16
2022-09-05T20:14:31.056Z,101891.00
2022-09-05T20:17:20.803Z,101894.50
2022-09-05T20:19:48.663Z,101895.88
2022-09-05T20:22:47.650Z,101892.06
2022-09-05T20:25:47.401Z,101890.69
2022-09-05T20:28:20.838Z,101895.81
2022-09-05T20:30:55.603Z,101895.56
2022-09-05T20:33:52.473Z,101894.47
2022-09-05T20:43:12.429Z,101890.09
2022-09-05T20:43:31.462Z,101895.50
2022-09-05T20:43:35.652Z,101893.56
2022-09-05T20:46:17.471Z,101887.03
2022-09-05T20:54:15.345Z,101889.19
2022-09-05T20:54:26.878Z,101892.16
2022-09-05T20:54:34.866Z,101882.38
2022-09-05T20:57:29.022Z,101892.69
2022-09-05T21:00:04.360Z,101886.97
2022-09-05T21:02:33.517Z,101885.34
2022-09-05T21:05:19.850Z,101882.91
2022-09-05T21:08:06.846Z,101889.66
2022-09-05T21:11:06.427Z,101881.53
2022-09-05T21:13:45.386Z,101889.94
2022-09-05T21:16:22.914Z,101886.13
2022-09-05T21:18:51.709Z,101881.50
2022-09-05T21:21:30.170Z,101889.91
2022-09-05T21:24:23.680Z,101889.09
2022-09-05T21:26:51.259Z,101879.59
2022-09-05T21:29:32.758Z,101879.59
2022-09-05T21:32:03.997Z,101881.19
2022-09-05T21:34:45.423Z,101887.19
2022-09-05T21:37:15.584Z,101878.97
2022-09-05T21:39:59.822Z,101863.22
2022-09-05T21:46:55.882Z,101874.63
2022-09-05T21:47:40.314Z,101876.53
2022-09-05T21:48:15.342Z,101878.69
2022-09-05T21:50:49.484Z,101876.25
2022-09-05T21:55:19.546Z,101862.66
2022-09-05T21:59:15.062Z,101867.53
2022-09-05T21:59:36.659Z,101863.97
2022-09-05T22:02:07.104Z,101866.66
2022-09-05T22:04:41.048Z,101862.84
2022-09-05T22:07:14.546Z,101871.25
2022-09-05T22:09:42.013Z,101860.63
2022-09-05T22:12:17.444Z,101870.91
2022-09-05T22:15:08.694Z,101878.72
2022-09-05T22:17:51.172Z,101871.63
2022-09-05T22:20:22.912Z,101861.84
2022-09-05T22:22:56.761Z,101874.03
2022-09-05T22:25:31.228Z,101863.97
2022-09-05T22:28:12.908Z,101859.06
2022-09-05T22:30:40.208Z,101861.75
2022-09-05T22:33:07.908Z,101870.38
2022-09-05T22:35:37.297Z,101872.53
2022-09-05T22:38:11.859Z,101855.97
2022-09-05T22:40:41.814Z,101859.72
2022-09-05T22:43:10.746Z,101864.56
2022-09-05T22:45:39.472Z,101863.19
2022-09-05T22:48:14.634Z,101861.00
2022-09-05T22:50:42.646Z,101868.00
2022-09-05T22:53:10.419Z,101861.47
2022-09-05T22:55:41.522Z,101859.84
2022-09-05T22:58:14.075Z,101858.72
2022-09-05T23:00:41.779Z,101850.00
2022-09-05T23:03:08.895Z,101854.59
2022-09-05T23:05:36.281Z,101850.78
2022-09-05T23:08:05.807Z,101859.16
2022-09-05T23:10:34.007Z,101853.16
2022-09-05T23:13:06.612Z,101858.84
2022-09-05T23:15:35.355Z,101862.06
2022-09-05T23:18:02.657Z,101861.72
2022-09-05T23:20:31.873Z,101854.94
2022-09-05T23:23:04.318Z,101853.00
2022-09-05T23:25:32.369Z,101852.13
2022-09-05T23:27:59.523Z,101863.22
2022-09-05T23:30:26.633Z,101848.56
2022-09-05T23:32:53.605Z,101851.78
2022-09-05T23:35:20.724Z,101847.38
2022-09-05T23:37:48.817Z,101848.47
2022-09-05T23:40:20.170Z,101853.31
2022-09-05T23:42:55.551Z,101859.22
2022-09-05T23:45:24.297Z,101856.47
2022-09-05T23:47:51.769Z,101848.03
2022-09-05T23:50:20.583Z,101849.94
2022-09-05T23:52:48.187Z,101845.75
2022-09-05T23:55:18.871Z,101844.38
2022-09-05T23:57:46.850Z,101846.53
